Archival Weather

Alykel

Alykel, Russia (UOOO)

Report from: Tuesday, November 21, 2023 1:30 AM UTC
Current time: Friday, July 19, 2024 2:49 AM UTC

Current weather – Weather history – Daily summaries
Weather forecast

Temperature-27.0°C (-16.6°F)
Wind chill-35.9°C (-32.7°F)
Dew point-30.0°C (-22.0°F)
Winds 5.8 kts (3 m/s, 6.7 mph) South (180°)
Visibility4.3 mi. (7 km)
Clouds Ceiling: Broken clouds 3,500 ft. (1,067 m)
Altimeter30.12 in.Hg (1020 mB)
Precip. events QF 12:28 PM
Relative humidity75 %
Density altitude-5,694 ft. (-1,735 m)
Remarks No significant changes expected in the next two hours
Flight conditions Marginal Visual Meteorological Conditions
Raw dataUOOO 210130Z 18003MPS 7000 BKN035 M27/M30 Q1020 R19/35//60 NOSIG RMK QFE748/0998
An error has occurred. This application may no longer respond until reloaded. Reload 🗙